sensor_id;sensor_type;location;lat;lon;timestamp;pressure;altitude;pressure_sealevel;temperature;humidity
5812;BME280;2932;52.400;9.558;2024-03-02T00:01:50;99758.84;;;15.80;55.48
5812;BME280;2932;52.400;9.558;2024-03-02T00:04:15;99754.47;;;15.72;55.61
5812;BME280;2932;52.400;9.558;2024-03-02T00:06:42;99754.47;;;15.72;55.53
5812;BME280;2932;52.400;9.558;2024-03-02T00:09:09;99749.69;;;15.68;55.81
5812;BME280;2932;52.400;9.558;2024-03-02T00:11:37;99754.09;;;15.55;55.66
5812;BME280;2932;52.400;9.558;2024-03-02T00:14:03;99762.06;;;15.32;56.29
5812;BME280;2932;52.400;9.558;2024-03-02T00:16:31;99754.50;;;15.22;56.42
5812;BME280;2932;52.400;9.558;2024-03-02T00:19:01;99756.50;;;15.25;56.44
5812;BME280;2932;52.400;9.558;2024-03-02T00:21:29;99751.31;;;15.23;56.68
5812;BME280;2932;52.400;9.558;2024-03-02T00:23:55;99767.25;;;15.26;56.92
5812;BME280;2932;52.400;9.558;2024-03-02T00:26:20;99757.28;;;15.22;56.68
5812;BME280;2932;52.400;9.558;2024-03-02T00:28:46;99755.31;;;15.26;56.54
5812;BME280;2932;52.400;9.558;2024-03-02T00:31:12;99756.50;;;15.21;56.74
5812;BME280;2932;52.400;9.558;2024-03-02T00:33:43;99749.31;;;15.34;56.55
5812;BME280;2932;52.400;9.558;2024-03-02T00:36:10;99756.09;;;15.44;56.22
5812;BME280;2932;52.400;9.558;2024-03-02T00:38:52;99759.69;;;15.52;55.71
5812;BME280;2932;52.400;9.558;2024-03-02T00:46:17;99764.06;;;15.49;56.17
5812;BME280;2932;52.400;9.558;2024-03-02T00:51:20;99766.44;;;15.47;55.97
5812;BME280;2932;52.400;9.558;2024-03-02T00:53:46;99769.63;;;15.42;55.87
5812;BME280;2932;52.400;9.558;2024-03-02T00:56:11;99775.22;;;15.49;55.73
5812;BME280;2932;52.400;9.558;2024-03-02T00:58:37;99771.22;;;15.36;55.63
5812;BME280;2932;52.400;9.558;2024-03-02T01:01:03;99766.88;;;15.14;56.00
5812;BME280;2932;52.400;9.558;2024-03-02T01:03:28;99777.59;;;15.05;56.35
5812;BME280;2932;52.400;9.558;2024-03-02T01:05:53;99773.19;;;14.89;56.57
5812;BME280;2932;52.400;9.558;2024-03-02T01:08:19;99768.06;;;15.06;56.45
5812;BME280;2932;52.400;9.558;2024-03-02T01:10:44;99757.69;;;15.27;56.18
5812;BME280;2932;52.400;9.558;2024-03-02T01:13:10;99760.06;;;15.40;55.78
5812;BME280;2932;52.400;9.558;2024-03-02T01:15:35;99761.28;;;15.49;55.75
5812;BME280;2932;52.400;9.558;2024-03-02T01:18:00;99762.47;;;15.38;55.42
5812;BME280;2932;52.400;9.558;2024-03-02T01:20:26;99766.44;;;15.33;55.83
5812;BME280;2932;52.400;9.558;2024-03-02T01:22:52;99762.47;;;15.41;55.68
5812;BME280;2932;52.400;9.558;2024-03-02T01:25:18;99755.31;;;15.37;55.73
5812;BME280;2932;52.400;9.558;2024-03-02T01:27:43;99757.28;;;15.43;55.79
5812;BME280;2932;52.400;9.558;2024-03-02T01:30:09;99752.50;;;15.44;55.72
5812;BME280;2932;52.400;9.558;2024-03-02T01:32:37;99756.88;;;15.45;55.68
5812;BME280;2932;52.400;9.558;2024-03-02T01:35:04;99748.53;;;15.48;55.39
5812;BME280;2932;52.400;9.558;2024-03-02T01:37:29;99754.50;;;15.47;55.68
5812;BME280;2932;52.400;9.558;2024-03-02T01:39:54;99741.75;;;15.46;55.57
5812;BME280;2932;52.400;9.558;2024-03-02T01:42:19;99751.31;;;15.48;55.71
5812;BME280;2932;52.400;9.558;2024-03-02T01:44:45;99753.69;;;15.46;55.68
5812;BME280;2932;52.400;9.558;2024-03-02T01:47:10;99752.91;;;15.35;56.08
5812;BME280;2932;52.400;9.558;2024-03-02T01:49:36;99752.91;;;15.35;56.04
5812;BME280;2932;52.400;9.558;2024-03-02T01:52:01;99752.13;;;15.42;55.87
5812;BME280;2932;52.400;9.558;2024-03-02T01:54:27;99748.94;;;15.43;56.09
5812;BME280;2932;52.400;9.558;2024-03-02T01:56:52;99748.53;;;15.34;56.01
5812;BME280;2932;52.400;9.558;2024-03-02T01:59:18;99741.75;;;15.42;55.88
5812;BME280;2932;52.400;9.558;2024-03-02T02:01:43;99743.34;;;15.40;55.61
5812;BME280;2932;52.400;9.558;2024-03-02T02:04:08;99746.53;;;15.38;55.68
5812;BME280;2932;52.400;9.558;2024-03-02T02:06:34;99733.78;;;15.55;55.61
5812;BME280;2932;52.400;9.558;2024-03-02T02:08:59;99741.34;;;15.61;55.21
5812;BME280;2932;52.400;9.558;2024-03-02T02:11:25;99735.75;;;15.65;55.12
5812;BME280;2932;52.400;9.558;2024-03-02T02:13:51;99730.56;;;15.67;55.32
5812;BME280;2932;52.400;9.558;2024-03-02T02:16:16;99727.38;;;15.68;55.41
5812;BME280;2932;52.400;9.558;2024-03-02T02:18:41;99720.63;;;15.66;55.21
5812;BME280;2932;52.400;9.558;2024-03-02T02:21:07;99727.38;;;15.68;55.45
5812;BME280;2932;52.400;9.558;2024-03-02T02:23:33;99726.59;;;15.64;55.61
5812;BME280;2932;52.400;9.558;2024-03-02T02:25:58;99723.81;;;15.61;55.43
5812;BME280;2932;52.400;9.558;2024-03-02T02:28:23;99722.66;;;15.58;55.71
5812;BME280;2932;52.400;9.558;2024-03-02T02:30:49;99714.28;;;15.58;55.86
5812;BME280;2932;52.400;9.558;2024-03-02T02:33:14;99718.25;;;15.54;56.14
5812;BME280;2932;52.400;9.558;2024-03-02T02:35:39;99703.88;;;15.66;55.69
5812;BME280;2932;52.400;9.558;2024-03-02T02:38:05;99718.25;;;15.61;55.72
5812;BME280;2932;52.400;9.558;2024-03-02T02:40:31;99706.28;;;15.60;55.72
5812;BME280;2932;52.400;9.558;2024-03-02T02:42:57;99709.09;;;15.46;56.00
5812;BME280;2932;52.400;9.558;2024-03-02T02:45:24;99710.28;;;15.49;55.82
5812;BME280;2932;52.400;9.558;2024-03-02T02:47:49;99711.09;;;15.46;56.14
5812;BME280;2932;52.400;9.558;2024-03-02T02:50:15;99711.50;;;15.37;56.32
5812;BME280;2932;52.400;9.558;2024-03-02T02:52:41;99709.94;;;15.18;56.80
5812;BME280;2932;52.400;9.558;2024-03-02T02:55:08;99713.53;;;15.05;57.01
5812;BME280;2932;52.400;9.558;2024-03-02T02:57:35;99707.97;;;15.05;57.17
5812;BME280;2932;52.400;9.558;2024-03-02T03:00:04;99703.97;;;15.13;57.02
5812;BME280;2932;52.400;9.558;2024-03-02T03:02:31;99709.56;;;15.06;57.31
5812;BME280;2932;52.400;9.558;2024-03-02T03:04:56;99710.34;;;15.13;57.29
5812;BME280;2932;52.400;9.558;2024-03-02T03:07:22;99708.75;;;15.12;57.49
5812;BME280;2932;52.400;9.558;2024-03-02T03:09:48;99705.94;;;15.23;57.55
5812;BME280;2932;52.400;9.558;2024-03-02T03:12:13;99707.56;;;15.13;57.45
5812;BME280;2932;52.400;9.558;2024-03-02T03:14:40;99704.38;;;15.00;57.64
5812;BME280;2932;52.400;9.558;2024-03-02T03:17:06;99696.41;;;14.99;57.95
5812;BME280;2932;52.400;9.558;2024-03-02T03:19:33;99699.59;;;15.05;57.96
5812;BME280;2932;52.400;9.558;2024-03-02T03:21:58;99699.59;;;14.97;58.05
5812;BME280;2932;52.400;9.558;2024-03-02T03:24:24;99703.19;;;15.01;57.94
5812;BME280;2932;52.400;9.558;2024-03-02T03:26:49;99703.19;;;15.05;57.83
5812;BME280;2932;52.400;9.558;2024-03-02T03:29:14;99701.97;;;14.95;58.15
5812;BME280;2932;52.400;9.558;2024-03-02T03:31:39;99701.19;;;14.95;58.27
5812;BME280;2932;52.400;9.558;2024-03-02T03:34:05;99696.81;;;14.90;58.23
5812;BME280;2932;52.400;9.558;2024-03-02T03:36:30;99692.44;;;14.96;58.13
5812;BME280;2932;52.400;9.558;2024-03-02T03:38:55;99699.19;;;15.06;57.91
5812;BME280;2932;52.400;9.558;2024-03-02T03:41:20;99689.25;;;15.01;57.80
5812;BME280;2932;52.400;9.558;2024-03-02T03:43:46;99692.44;;;14.96;58.11
5812;BME280;2932;52.400;9.558;2024-03-02T03:46:11;99687.25;;;14.91;58.01
5812;BME280;2932;52.400;9.558;2024-03-02T03:48:36;99690.03;;;14.84;58.16
5812;BME280;2932;52.400;9.558;2024-03-02T03:51:02;99684.91;;;14.79;58.34
5812;BME280;2932;52.400;9.558;2024-03-02T03:53:27;99680.13;;;14.76;58.52
5812;BME280;2932;52.400;9.558;2024-03-02T03:55:52;99692.41;;;14.57;58.84
5812;BME280;2932;52.400;9.558;2024-03-02T03:58:18;99694.41;;;14.64;58.84
5812;BME280;2932;52.400;9.558;2024-03-02T04:00:45;99688.88;;;14.71;58.55
5812;BME280;2932;52.400;9.558;2024-03-02T04:03:11;99690.84;;;14.63;58.76
5812;BME280;2932;52.400;9.558;2024-03-02T04:05:36;99682.88;;;14.62;58.57
5812;BME280;2932;52.400;9.558;2024-03-02T04:08:03;99682.09;;;14.61;59.00
5812;BME280;2932;52.400;9.558;2024-03-02T04:10:29;99682.09;;;14.68;58.79
5812;BME280;2932;52.400;9.558;2024-03-02T04:12:55;99690.44;;;14.61;59.06
5812;BME280;2932;52.400;9.558;2024-03-02T04:15:20;99695.63;;;14.70;58.81
5812;BME280;2932;52.400;9.558;2024-03-02T04:17:46;99695.59;;;14.63;59.28
5812;BME280;2932;52.400;9.558;2024-03-02T04:20:11;99693.19;;;14.51;58.96
5812;BME280;2932;52.400;9.558;2024-03-02T04:22:37;99703.97;;;14.70;59.26
5812;BME280;2932;52.400;9.558;2024-03-02T04:25:03;99700.78;;;14.61;58.95
5812;BME280;2932;52.400;9.558;2024-03-02T04:27:30;99701.97;;;14.63;58.90
5812;BME280;2932;52.400;9.558;2024-03-02T04:29:55;99699.97;;;14.60;59.01
5812;BME280;2932;52.400;9.558;2024-03-02T04:32:20;99702.78;;;14.67;59.15
5812;BME280;2932;52.400;9.558;2024-03-02T04:34:46;99709.13;;;14.64;59.14
5812;BME280;2932;52.400;9.558;2024-03-02T04:37:11;99706.78;;;14.77;58.85
5812;BME280;2932;52.400;9.558;2024-03-02T04:39:37;99700.38;;;14.84;58.59
5812;BME280;2932;52.400;9.558;2024-03-02T04:42:03;99706.34;;;14.89;58.03
5812;BME280;2932;52.400;9.558;2024-03-02T04:44:28;99709.16;;;14.96;58.34
5812;BME280;2932;52.400;9.558;2024-03-02T04:46:54;99711.16;;;14.78;58.22
5812;BME280;2932;52.400;9.558;2024-03-02T04:49:19;99707.97;;;14.76;58.24
5812;BME280;2932;52.400;9.558;2024-03-02T04:51:44;99704.38;;;14.76;58.15
5812;BME280;2932;52.400;9.558;2024-03-02T04:54:10;99710.72;;;14.69;58.32
5812;BME280;2932;52.400;9.558;2024-03-02T04:56:35;99704.34;;;14.83;58.07
5812;BME280;2932;52.400;9.558;2024-03-02T04:59:10;99701.19;;;14.77;58.11
5812;BME280;2932;52.400;9.558;2024-03-02T05:01:36;99702.78;;;14.78;58.26
5812;BME280;2932;52.400;9.558;2024-03-02T05:04:01;99700.78;;;14.86;57.90
5812;BME280;2932;52.400;9.558;2024-03-02T05:06:27;99698.00;;;14.89;58.11
5812;BME280;2932;52.400;9.558;2024-03-02T05:08:52;99707.16;;;14.86;58.27
5812;BME280;2932;52.400;9.558;2024-03-02T05:11:17;99709.16;;;14.79;58.09
5812;BME280;2932;52.400;9.558;2024-03-02T05:14:14;99700.00;;;14.64;58.23
5812;BME280;2932;52.400;9.558;2024-03-02T05:16:40;99708.34;;;14.71;58.26
5812;BME280;2932;52.400;9.558;2024-03-02T05:19:07;99697.22;;;14.67;58.42
5812;BME280;2932;52.400;9.558;2024-03-02T05:21:33;99700.00;;;14.78;58.43
5812;BME280;2932;52.400;9.558;2024-03-02T05:23:59;99703.56;;;14.72;58.57
5812;BME280;2932;52.400;9.558;2024-03-02T05:26:24;99703.56;;;14.72;58.69
5812;BME280;2932;52.400;9.558;2024-03-02T05:28:50;99703.97;;;14.66;58.66
5812;BME280;2932;52.400;9.558;2024-03-02T05:31:15;99713.94;;;14.78;58.84
5812;BME280;2932;52.400;9.558;2024-03-02T05:33:41;99715.50;;;14.72;58.77
5812;BME280;2932;52.400;9.558;2024-03-02T05:36:07;99709.53;;;14.66;58.77
5812;BME280;2932;52.400;9.558;2024-03-02T05:38:34;99715.50;;;14.68;58.83
5812;BME280;2932;52.400;9.558;2024-03-02T05:41:00;99724.66;;;14.76;59.16
5812;BME280;2932;52.400;9.558;2024-03-02T05:43:25;99723.44;;;14.63;59.30
5812;BME280;2932;52.400;9.558;2024-03-02T05:45:50;99721.47;;;14.67;59.32
5812;BME280;2932;52.400;9.558;2024-03-02T05:48:16;99722.25;;;14.60;59.55
5812;BME280;2932;52.400;9.558;2024-03-02T05:50:41;99724.25;;;14.67;59.13
5812;BME280;2932;52.400;9.558;2024-03-02T05:53:06;99713.13;;;14.71;59.24
5812;BME280;2932;52.400;9.558;2024-03-02T05:55:32;99718.28;;;14.72;59.16
5812;BME280;2932;52.400;9.558;2024-03-02T05:57:58;99719.50;;;14.71;59.09
5812;BME280;2932;52.400;9.558;2024-03-02T06:00:23;99712.72;;;14.72;59.13
5812;BME280;2932;52.400;9.558;2024-03-02T06:02:48;99719.47;;;14.67;59.23
5812;BME280;2932;52.400;9.558;2024-03-02T06:05:14;99725.84;;;14.68;59.05
5812;BME280;2932;52.400;9.558;2024-03-02T06:07:40;99728.19;;;14.55;59.27
5812;BME280;2932;52.400;9.558;2024-03-02T06:10:06;99729.81;;;14.60;59.57
5812;BME280;2932;52.400;9.558;2024-03-02T06:12:32;99738.97;;;14.64;59.14
5812;BME280;2932;52.400;9.558;2024-03-02T06:14:58;99738.56;;;14.58;59.82
5812;BME280;2932;52.400;9.558;2024-03-02T06:17:23;99733.78;;;14.66;59.46
5812;BME280;2932;52.400;9.558;2024-03-02T06:19:48;99735.78;;;14.65;59.40
5812;BME280;2932;52.400;9.558;2024-03-02T06:22:14;99743.34;;;14.72;59.38
5812;BME280;2932;52.400;9.558;2024-03-02T06:24:39;99744.53;;;14.64;59.44
5812;BME280;2932;52.400;9.558;2024-03-02T06:27:05;99741.75;;;14.71;59.17
5812;BME280;2932;52.400;9.558;2024-03-02T06:29:32;99745.34;;;14.72;58.86
5812;BME280;2932;52.400;9.558;2024-03-02T06:31:58;99742.56;;;14.75;59.12
5812;BME280;2932;52.400;9.558;2024-03-02T06:34:23;99741.78;;;14.75;58.85
5812;BME280;2932;52.400;9.558;2024-03-02T06:36:48;99739.00;;;14.78;58.85
5812;BME280;2932;52.400;9.558;2024-03-02T06:39:14;99749.72;;;14.69;59.16
5812;BME280;2932;52.400;9.558;2024-03-02T06:41:39;99741.34;;;14.80;59.01
5812;BME280;2932;52.400;9.558;2024-03-02T06:44:04;99742.94;;;14.84;58.94
5812;BME280;2932;52.400;9.558;2024-03-02T06:46:31;99743.38;;;14.79;58.95
5812;BME280;2932;52.400;9.558;2024-03-02T06:48:57;99754.50;;;14.72;58.93
5812;BME280;2932;52.400;9.558;2024-03-02T06:51:22;99754.09;;;14.74;59.32
5812;BME280;2932;52.400;9.558;2024-03-02T06:53:48;99764.03;;;14.85;59.01
5812;BME280;2932;52.400;9.558;2024-03-02T06:56:13;99756.09;;;14.77;59.18
5812;BME280;2932;52.400;9.558;2024-03-02T06:58:39;99759.66;;;14.88;59.07
5812;BME280;2932;52.400;9.558;2024-03-02T07:01:04;99755.31;;;14.94;59.08
5812;BME280;2932;52.400;9.558;2024-03-02T07:03:30;99760.84;;;14.80;58.78
5812;BME280;2932;52.400;9.558;2024-03-02T07:05:55;99765.25;;;14.77;59.11
5812;BME280;2932;52.400;9.558;2024-03-02T07:08:20;99758.88;;;14.70;59.66
5812;BME280;2932;52.400;9.558;2024-03-02T07:10:46;99755.69;;;14.75;59.62
5812;BME280;2932;52.400;9.558;2024-03-02T07:13:12;99766.81;;;14.64;60.01
5812;BME280;2932;52.400;9.558;2024-03-02T07:15:38;99756.84;;;14.59;59.91
5812;BME280;2932;52.400;9.558;2024-03-02T07:18:21;99758.84;;;14.59;59.54
5812;BME280;2932;52.400;9.558;2024-03-02T07:20:47;99770.31;;;14.47;60.09
5812;BME280;2932;52.400;9.558;2024-03-02T07:23:14;99771.19;;;14.65;60.07
5812;BME280;2932;52.400;9.558;2024-03-02T07:25:40;99768.03;;;14.77;59.70
5812;BME280;2932;52.400;9.558;2024-03-02T07:28:05;99777.47;;;14.48;59.79
5812;BME280;2932;52.400;9.558;2024-03-02T07:30:32;99773.13;;;14.50;60.13
5812;BME280;2932;52.400;9.558;2024-03-02T07:32:57;99773.19;;;14.82;59.83
5812;BME280;2932;52.400;9.558;2024-03-02T07:35:23;99769.22;;;14.83;59.29
5812;BME280;2932;52.400;9.558;2024-03-02T07:37:52;99778.00;;;15.07;59.16
5812;BME280;2932;52.400;9.558;2024-03-02T07:40:18;99776.00;;;15.07;58.82
5812;BME280;2932;52.400;9.558;2024-03-02T07:42:43;99776.00;;;14.93;58.79
5812;BME280;2932;52.400;9.558;2024-03-02T07:45:09;99781.19;;;15.26;58.63
5812;BME280;2932;52.400;9.558;2024-03-02T07:47:35;99785.16;;;15.29;58.51
5812;BME280;2932;52.400;9.558;2024-03-02T07:50:00;99786.34;;;15.21;58.13
5812;BME280;2932;52.400;9.558;2024-03-02T07:52:26;99792.31;;;14.98;58.29
5812;BME280;2932;52.400;9.558;2024-03-02T07:54:51;99792.72;;;15.25;58.23
5812;BME280;2932;52.400;9.558;2024-03-02T07:57:16;99788.75;;;15.61;57.51
5812;BME280;2932;52.400;9.558;2024-03-02T07:59:42;99793.50;;;15.72;57.05
5812;BME280;2932;52.400;9.558;2024-03-02T08:02:08;99793.50;;;15.75;57.53
5812;BME280;2932;52.400;9.558;2024-03-02T08:04:33;99796.63;;;16.06;56.82
5812;BME280;2932;52.400;9.558;2024-03-02T08:06:59;99785.03;;;16.14;56.40
5812;BME280;2932;52.400;9.558;2024-03-02T08:09:24;99792.16;;;16.33;56.37
5812;BME280;2932;52.400;9.558;2024-03-02T08:11:51;99788.16;;;16.30;56.01
5812;BME280;2932;52.400;9.558;2024-03-02T08:14:16;99790.97;;;16.27;55.83
5812;BME280;2932;52.400;9.558;2024-03-02T08:16:41;99795.72;;;16.37;55.62
5812;BME280;2932;52.400;9.558;2024-03-02T08:19:07;99794.81;;;16.58;55.16
5812;BME280;2932;52.400;9.558;2024-03-02T08:21:34;99790.56;;;16.32;55.38
5812;BME280;2932;52.400;9.558;2024-03-02T08:24:00;99790.81;;;16.62;55.08
5812;BME280;2932;52.400;9.558;2024-03-02T08:26:26;99783.59;;;16.72;55.11
5812;BME280;2932;52.400;9.558;2024-03-02T08:28:54;99786.09;;;16.45;54.96
5812;BME280;2932;52.400;9.558;2024-03-02T08:31:19;99792.22;;;16.12;55.38
5812;BME280;2932;52.400;9.558;2024-03-02T08:33:44;99792.00;;;16.61;55.06
5812;BME280;2932;52.400;9.558;2024-03-02T08:36:10;99788.41;;;16.72;54.54
5812;BME280;2932;52.400;9.558;2024-03-02T08:38:35;99796.03;;;16.50;54.54
5812;BME280;2932;52.400;9.558;2024-03-02T08:41:01;99802.84;;;16.49;54.54
5812;BME280;2932;52.400;9.558;2024-03-02T08:43:26;99806.06;;;16.40;55.01
5812;BME280;2932;52.400;9.558;2024-03-02T08:45:51;99808.06;;;16.40;55.34
5812;BME280;2932;52.400;9.558;2024-03-02T08:48:17;99807.59;;;16.55;55.07
5812;BME280;2932;52.400;9.558;2024-03-02T08:50:42;99812.34;;;16.62;55.04
5812;BME280;2932;52.400;9.558;2024-03-02T08:53:08;99815.22;;;16.41;55.22
5812;BME280;2932;52.400;9.558;2024-03-02T08:55:33;99810.84;;;16.43;55.74
5812;BME280;2932;52.400;9.558;2024-03-02T08:57:59;99812.31;;;16.76;55.60
5812;BME280;2932;52.400;9.558;2024-03-02T09:00:24;99813.16;;;16.59;54.91
5812;BME280;2932;52.400;9.558;2024-03-02T09:02:50;99816.34;;;16.57;55.67
5812;BME280;2932;52.400;9.558;2024-03-02T09:05:15;99824.75;;;16.64;55.44
5812;BME280;2932;52.400;9.558;2024-03-02T09:07:41;99823.94;;;16.60;55.31
5812;BME280;2932;52.400;9.558;2024-03-02T09:10:07;99818.28;;;16.78;55.05
5812;BME280;2932;52.400;9.558;2024-03-02T09:12:33;99818.72;;;16.70;55.06
5812;BME280;2932;52.400;9.558;2024-03-02T09:14:59;99813.03;;;16.84;55.17
5812;BME280;2932;52.400;9.558;2024-03-02T09:17:25;99804.94;;;17.04;54.64
5812;BME280;2932;52.400;9.558;2024-03-02T09:19:51;99806.56;;;17.01;54.36
5812;BME280;2932;52.400;9.558;2024-03-02T09:22:19;99809.78;;;16.96;54.59
5812;BME280;2932;52.400;9.558;2024-03-02T09:24:44;99813.91;;;16.74;54.80
5812;BME280;2932;52.400;9.558;2024-03-02T09:27:10;99826.75;;;16.53;55.52
5812;BME280;2932;52.400;9.558;2024-03-02T09:29:35;99826.00;;;16.42;55.51
5812;BME280;2932;52.400;9.558;2024-03-02T09:32:01;99828.47;;;16.22;55.79
5812;BME280;2932;52.400;9.558;2024-03-02T09:34:26;99815.66;;;16.39;55.62
5812;BME280;2932;52.400;9.558;2024-03-02T09:36:52;99820.06;;;16.37;55.61
5812;BME280;2932;52.400;9.558;2024-03-02T09:39:17;99821.53;;;16.70;55.03
5812;BME280;2932;52.400;9.558;2024-03-02T09:41:43;99824.75;;;16.64;54.18
5812;BME280;2932;52.400;9.558;2024-03-02T09:44:09;99831.28;;;16.12;54.79
5812;BME280;2932;52.400;9.558;2024-03-02T09:46:34;99833.34;;;15.90;54.31
5812;BME280;2932;52.400;9.558;2024-03-02T09:49:02;99837.72;;;15.84;54.79
5812;BME280;2932;52.400;9.558;2024-03-02T09:51:27;99831.19;;;16.40;54.53
5812;BME280;2932;52.400;9.558;2024-03-02T09:53:54;99834.38;;;16.42;54.08
5812;BME280;2932;52.400;9.558;2024-03-02T09:56:21;99830.75;;;16.52;53.63
5812;BME280;2932;52.400;9.558;2024-03-02T09:58:47;99831.06;;;16.76;53.64
5812;BME280;2932;52.400;9.558;2024-03-02T10:01:12;99829.41;;;16.85;53.46
5812;BME280;2932;52.400;9.558;2024-03-02T10:03:37;99824.09;;;17.09;53.31
5812;BME280;2932;52.400;9.558;2024-03-02T10:06:35;99828.91;;;17.01;53.07
5812;BME280;2932;52.400;9.558;2024-03-02T10:09:13;99816.50;;;17.09;52.80
5812;BME280;2932;52.400;9.558;2024-03-02T10:11:51;99832.13;;;16.99;52.62
5812;BME280;2932;52.400;9.558;2024-03-02T10:14:25;99826.31;;;17.28;52.12
5812;BME280;2932;52.400;9.558;2024-03-02T10:16:51;99826.59;;;17.44;51.89
5812;BME280;2932;52.400;9.558;2024-03-02T10:19:21;99852.88;;;17.02;51.90
5812;BME280;2932;52.400;9.558;2024-03-02T10:21:50;99835.75;;;16.89;51.81
5812;BME280;2932;52.400;9.558;2024-03-02T10:24:20;99837.03;;;17.37;51.52
5812;BME280;2932;52.400;9.558;2024-03-02T10:26:49;99830.59;;;17.43;51.64
5812;BME280;2932;52.400;9.558;2024-03-02T10:29:15;99835.50;;;17.80;51.56
5812;BME280;2932;52.400;9.558;2024-03-02T10:31:45;99841.25;;;18.04;50.75
5812;BME280;2932;52.400;9.558;2024-03-02T10:34:16;99835.88;;;18.20;49.97
5812;BME280;2932;52.400;9.558;2024-03-02T10:36:42;99834.38;;;18.46;50.21
5812;BME280;2932;52.400;9.558;2024-03-02T10:39:09;99830.09;;;18.38;50.05
5812;BME280;2932;52.400;9.558;2024-03-02T10:41:36;99831.78;;;17.94;49.86
5812;BME280;2932;52.400;9.558;2024-03-02T10:44:03;99828.75;;;18.15;49.92
5812;BME280;2932;52.400;9.558;2024-03-02T10:46:30;99834.72;;;18.17;50.66
5812;BME280;2932;52.400;9.558;2024-03-02T10:49:00;99834.00;;;18.44;50.27
5812;BME280;2932;52.400;9.558;2024-03-02T10:51:30;99831.88;;;18.55;49.56
5812;BME280;2932;52.400;9.558;2024-03-02T10:53:59;99837.84;;;18.57;49.42
5812;BME280;2932;52.400;9.558;2024-03-02T10:56:30;99838.59;;;18.64;49.33
5812;BME280;2932;52.400;9.558;2024-03-02T10:59:03;99831.88;;;18.85;49.40
5812;BME280;2932;52.400;9.558;2024-03-02T11:01:30;99828.28;;;18.85;50.02
5812;BME280;2932;52.400;9.558;2024-03-02T11:03:57;99827.56;;;19.08;50.07
5812;BME280;2932;52.400;9.558;2024-03-02T11:06:23;99825.38;;;18.92;50.67
5812;BME280;2932;52.400;9.558;2024-03-02T11:08:51;99841.38;;;18.95;50.84
5812;BME280;2932;52.400;9.558;2024-03-02T11:11:28;99834.81;;;19.05;50.91
5812;BME280;2932;52.400;9.558;2024-03-02T11:13:56;99838.19;;;18.93;51.09
5812;BME280;2932;52.400;9.558;2024-03-02T11:16:34;99844.97;;;18.65;51.16
5812;BME280;2932;52.400;9.558;2024-03-02T11:19:07;99838.03;;;18.77;51.70
5812;BME280;2932;52.400;9.558;2024-03-02T11:21:35;99837.41;;;18.92;51.26
5812;BME280;2932;52.400;9.558;2024-03-02T11:24:00;99838.88;;;19.01;51.40
5812;BME280;2932;52.400;9.558;2024-03-02T11:26:27;99836.34;;;19.10;51.10
5812;BME280;2932;52.400;9.558;2024-03-02T11:28:54;99837.13;;;19.37;51.01
5812;BME280;2932;52.400;9.558;2024-03-02T11:31:21;99841.88;;;19.17;51.18
5812;BME280;2932;52.400;9.558;2024-03-02T11:33:46;99830.56;;;19.20;51.29
5812;BME280;2932;52.400;9.558;2024-03-02T11:36:11;99836.25;;;19.17;51.11
5812;BME280;2932;52.400;9.558;2024-03-02T11:38:38;99833.69;;;19.26;51.40
5812;BME280;2932;52.400;9.558;2024-03-02T11:41:07;99840.88;;;19.27;50.68
5812;BME280;2932;52.400;9.558;2024-03-02T11:43:37;99837.28;;;19.26;50.57
5812;BME280;2932;52.400;9.558;2024-03-02T11:46:05;99847.84;;;19.19;51.13
5812;BME280;2932;52.400;9.558;2024-03-02T11:48:32;99840.56;;;19.48;50.55
5812;BME280;2932;52.400;9.558;2024-03-02T11:51:00;99829.00;;;19.70;49.74
5812;BME280;2932;52.400;9.558;2024-03-02T11:53:28;99827.47;;;19.88;49.85
5812;BME280;2932;52.400;9.558;2024-03-02T11:55:58;99822.28;;;19.87;49.87
5812;BME280;2932;52.400;9.558;2024-03-02T11:58:24;99820.19;;;20.34;49.36
5812;BME280;2932;52.400;9.558;2024-03-02T12:00:54;99817.94;;;20.45;48.80
5812;BME280;2932;52.400;9.558;2024-03-02T12:03:22;99822.34;;;20.66;48.30
5812;BME280;2932;52.400;9.558;2024-03-02T12:05:51;99816.59;;;21.25;47.35
5812;BME280;2932;52.400;9.558;2024-03-02T12:08:17;99816.06;;;22.24;46.00
5812;BME280;2932;52.400;9.558;2024-03-02T12:10:42;99820.41;;;22.96;44.96
5812;BME280;2932;52.400;9.558;2024-03-02T12:13:10;99810.81;;;24.48;42.50
5812;BME280;2932;52.400;9.558;2024-03-02T12:15:38;99809.53;;;26.18;40.52
5812;BME280;2932;52.400;9.558;2024-03-02T12:18:04;99811.81;;;27.26;39.12
5812;BME280;2932;52.400;9.558;2024-03-02T12:20:31;99798.47;;;28.13;37.65
5812;BME280;2932;52.400;9.558;2024-03-02T12:23:02;99790.34;;;29.03;36.46
5812;BME280;2932;52.400;9.558;2024-03-02T12:25:28;99791.47;;;29.81;35.56
5812;BME280;2932;52.400;9.558;2024-03-02T12:27:56;99790.66;;;30.68;35.15
5812;BME280;2932;52.400;9.558;2024-03-02T12:30:22;99799.03;;;31.08;34.16
5812;BME280;2932;52.400;9.558;2024-03-02T12:32:48;99809.13;;;31.04;34.03
5812;BME280;2932;52.400;9.558;2024-03-02T12:35:14;99791.06;;;31.55;32.90
5812;BME280;2932;52.400;9.558;2024-03-02T12:37:51;99799.16;;;32.16;32.74
5812;BME280;2932;52.400;9.558;2024-03-02T12:40:18;99796.91;;;32.48;32.22
5812;BME280;2932;52.400;9.558;2024-03-02T12:42:44;99790.94;;;33.24;32.21
5812;BME280;2932;52.400;9.558;2024-03-02T12:45:11;99778.66;;;34.21;31.24
5812;BME280;2932;52.400;9.558;2024-03-02T12:47:37;99780.03;;;34.55;30.67
5812;BME280;2932;52.400;9.558;2024-03-02T12:50:07;99779.03;;;35.18;29.78
5812;BME280;2932;52.400;9.558;2024-03-02T12:52:33;99779.19;;;35.26;29.82
5812;BME280;2932;52.400;9.558;2024-03-02T12:55:04;99778.22;;;34.88;29.77
5812;BME280;2932;52.400;9.558;2024-03-02T12:57:31;99772.88;;;35.27;28.88
5812;BME280;2932;52.400;9.558;2024-03-02T13:00:05;99770.81;;;34.98;29.66
5812;BME280;2932;52.400;9.558;2024-03-02T13:02:40;99775.34;;;34.88;29.93
5812;BME280;2932;52.400;9.558;2024-03-02T13:05:07;99764.69;;;35.61;28.93
5812;BME280;2932;52.400;9.558;2024-03-02T13:07:36;99767.47;;;34.94;28.70
5812;BME280;2932;52.400;9.558;2024-03-02T13:10:03;99764.47;;;33.93;29.38
5812;BME280;2932;52.400;9.558;2024-03-02T13:12:30;99760.22;;;33.99;29.47
5812;BME280;2932;52.400;9.558;2024-03-02T13:14:57;99762.63;;;33.95;29.40
5812;BME280;2932;52.400;9.558;2024-03-02T13:17:23;99764.97;;;34.43;29.29
5812;BME280;2932;52.400;9.558;2024-03-02T13:19:58;99752.72;;;33.96;29.34
5812;BME280;2932;52.400;9.558;2024-03-02T13:22:25;99757.50;;;34.24;29.44
5812;BME280;2932;52.400;9.558;2024-03-02T13:24:51;99748.38;;;34.96;29.33
5812;BME280;2932;52.400;9.558;2024-03-02T13:27:17;99744.72;;;34.60;29.12